Time;durP1;ratioP1;P1;durP2;ratioP2;P2;SDS_P1;SDS_P2;PMS_P1;PMS_P2;Temp;Humidity;BMP_temperature;BMP_pressure;BME280_temperature;BME280_humidity;BME280_pressure;Samples;Min_cycle;Max_cycle;Signal;HPM_P1;HPM_P2
2021/12/26 00:00:21;;;;;;;5.35;2.60;;;;;;;;;;5075978;28;20056;-64
2021/12/26 00:02:47;;;;;;;7.53;2.70;;;;;;;;;;5076494;28;20053;-64
2021/12/26 00:05:14;;;;;;;5.18;2.50;;;;;;;;;;5042559;28;20045;-65
2021/12/26 00:07:40;;;;;;;5.93;2.47;;;;;;;;;;5055213;28;20040;-65
2021/12/26 00:10:08;;;;;;;7.45;3.00;;;;;;;;;;5076194;28;20055;-64
2021/12/26 00:12:34;;;;;;;6.38;2.92;;;;;;;;;;5044546;28;20032;-64
2021/12/26 00:15:00;;;;;;;4.40;2.60;;;;;;;;;;5073763;28;20069;-65
2021/12/26 00:17:26;;;;;;;5.00;2.75;;;;;;;;;;5076907;28;20064;-64
2021/12/26 00:19:52;;;;;;;5.18;2.30;;;;;;;;;;5076572;28;20048;-64
2021/12/26 00:22:18;;;;;;;4.22;2.33;;;;;;;;;;5076001;28;20041;-64
2021/12/26 00:24:45;;;;;;;5.10;2.40;;;;;;;;;;5076139;28;20049;-64
2021/12/26 00:27:12;;;;;;;4.68;2.40;;;;;;;;;;5075759;28;20517;-64
2021/12/26 00:29:38;;;;;;;3.67;2.15;;;;;;;;;;5076295;28;20134;-64
2021/12/26 00:32:06;;;;;;;4.10;2.22;;;;;;;;;;5075958;28;20049;-64
2021/12/26 00:34:32;;;;;;;7.43;2.72;;;;;;;;;;5075547;28;20052;-66
2021/12/26 00:36:58;;;;;;;5.45;2.80;;;;;;;;;;5077162;28;20108;-64
2021/12/26 00:39:24;;;;;;;4.78;2.55;;;;;;;;;;5076326;28;20049;-64
2021/12/26 00:41:50;;;;;;;5.90;2.50;;;;;;;;;;5075808;28;20044;-66
2021/12/26 00:44:16;;;;;;;5.28;2.40;;;;;;;;;;5075882;28;20041;-67
2021/12/26 00:46:42;;;;;;;4.90;2.33;;;;;;;;;;5076764;28;20033;-64
2021/12/26 00:49:08;;;;;;;3.58;2.20;;;;;;;;;;5074974;28;20072;-66
2021/12/26 00:51:34;;;;;;;5.90;2.50;;;;;;;;;;5075795;28;20049;-64
2021/12/26 00:54:00;;;;;;;4.03;2.28;;;;;;;;;;5075227;28;20048;-67
2021/12/26 00:56:26;;;;;;;6.45;2.83;;;;;;;;;;5076027;28;20048;-65
2021/12/26 00:58:52;;;;;;;5.20;2.30;;;;;;;;;;5075437;28;20048;-65
2021/12/26 01:01:18;;;;;;;5.10;2.20;;;;;;;;;;5042119;28;20072;-65
2021/12/26 01:03:44;;;;;;;5.72;2.60;;;;;;;;;;5072213;28;20045;-66
2021/12/26 01:06:10;;;;;;;5.47;2.65;;;;;;;;;;5074643;28;20041;-65
2021/12/26 01:08:40;;;;;;;5.45;2.47;;;;;;;;;;5074989;28;20055;-65
2021/12/26 01:11:18;;;;;;;5.22;2.33;;;;;;;;;;5074825;28;20101;-65
2021/12/26 01:13:45;;;;;;;5.65;2.20;;;;;;;;;;5058140;28;20044;-65
2021/12/26 01:16:12;;;;;;;20.92;2.25;;;;;;;;;;5074818;28;20056;-66
2021/12/26 01:18:42;;;;;;;6.45;2.47;;;;;;;;;;5075152;28;20041;-65
2021/12/26 01:21:25;;;;;;;6.38;2.67;;;;;;;;;;5075705;28;20052;-66
2021/12/26 01:23:53;;;;;;;6.15;2.85;;;;;;;;;;5073895;28;20152;-65
2021/12/26 01:26:20;;;;;;;6.00;2.63;;;;;;;;;;5073990;28;20033;-65
2021/12/26 01:28:46;;;;;;;4.70;2.10;;;;;;;;;;5074924;28;20071;-65
2021/12/26 01:31:18;;;;;;;6.38;2.08;;;;;;;;;;5072796;28;20060;-66
2021/12/26 01:33:44;;;;;;;3.00;2.08;;;;;;;;;;5056877;28;20078;-66
2021/12/26 01:36:10;;;;;;;5.30;2.15;;;;;;;;;;5073162;28;20041;-68
2021/12/26 01:38:36;;;;;;;4.10;2.05;;;;;;;;;;5073834;28;20045;-64
2021/12/26 01:41:09;;;;;;;3.92;2.00;;;;;;;;;;5069322;28;20052;-65
2021/12/26 01:43:35;;;;;;;3.10;1.83;;;;;;;;;;5070728;28;20071;-66
2021/12/26 01:46:01;;;;;;;4.00;2.20;;;;;;;;;;5074679;28;20093;-65
2021/12/26 01:48:28;;;;;;;4.18;2.42;;;;;;;;;;5039395;28;20076;-64
2021/12/26 01:50:54;;;;;;;4.32;1.90;;;;;;;;;;5074566;28;20025;-64
2021/12/26 01:53:23;;;;;;;3.33;1.90;;;;;;;;;;5057478;28;20040;-65
2021/12/26 01:55:49;;;;;;;3.97;1.85;;;;;;;;;;5073289;28;20036;-65
2021/12/26 01:58:23;;;;;;;3.38;1.83;;;;;;;;;;5073731;28;20044;-66
2021/12/26 02:00:51;;;;;;;3.13;1.90;;;;;;;;;;5072528;28;20083;-65
2021/12/26 02:03:17;;;;;;;4.70;2.05;;;;;;;;;;5073272;28;20059;-64
2021/12/26 02:05:43;;;;;;;4.90;2.13;;;;;;;;;;5074130;28;20106;-65
2021/12/26 02:08:09;;;;;;;5.63;2.10;;;;;;;;;;5089661;28;20053;-64
2021/12/26 02:10:35;;;;;;;9.30;2.38;;;;;;;;;;5074955;28;20049;-65
2021/12/26 02:13:01;;;;;;;5.60;2.30;;;;;;;;;;5069340;28;20025;-64
2021/12/26 02:15:27;;;;;;;3.53;2.03;;;;;;;;;;5073141;28;20075;-65
2021/12/26 02:17:53;;;;;;;5.35;2.67;;;;;;;;;;5067142;28;20059;-66
2021/12/26 02:20:56;;;;;;;3.97;2.10;;;;;;;;;;5076149;28;20045;-64
2021/12/26 02:23:35;;;;;;;4.93;2.40;;;;;;;;;;5077505;28;20109;-65
2021/12/26 02:28:48;;;;;;;8.05;2.40;;;;;;;;;;5075403;28;20096;-65
2021/12/26 02:31:15;;;;;;;6.70;2.22;;;;;;;;;;5075898;28;20057;-65
2021/12/26 02:33:42;;;;;;;4.97;2.67;;;;;;;;;;5071567;28;20041;-64
2021/12/26 02:36:08;;;;;;;6.22;2.15;;;;;;;;;;5076259;28;20052;-65
2021/12/26 02:38:35;;;;;;;4.47;2.53;;;;;;;;;;5076260;28;20064;-66
2021/12/26 02:41:01;;;;;;;3.35;2.30;;;;;;;;;;5076540;28;20037;-64
2021/12/26 02:43:29;;;;;;;7.53;2.83;;;;;;;;;;5072787;28;20070;-64
2021/12/26 02:45:55;;;;;;;10.63;2.78;;;;;;;;;;5076727;28;20041;-65
2021/12/26 02:48:21;;;;;;;6.88;2.95;;;;;;;;;;5077843;28;20048;-64
2021/12/26 02:50:52;;;;;;;6.70;3.00;;;;;;;;;;5076491;28;20092;-64
2021/12/26 02:53:20;;;;;;;13.38;3.45;;;;;;;;;;5076056;28;20049;-64
2021/12/26 02:55:47;;;;;;;7.15;2.75;;;;;;;;;;5076044;28;20072;-64
2021/12/26 02:58:13;;;;;;;6.63;2.95;;;;;;;;;;5050758;28;20109;-64
2021/12/26 03:00:42;;;;;;;5.95;2.42;;;;;;;;;;5076635;28;20032;-64
2021/12/26 03:03:09;;;;;;;4.80;2.67;;;;;;;;;;5077677;28;20049;-64
2021/12/26 03:05:37;;;;;;;5.97;2.78;;;;;;;;;;5071226;28;20037;-64
2021/12/26 03:08:03;;;;;;;5.45;2.72;;;;;;;;;;5075760;28;20072;-64
2021/12/26 03:10:29;;;;;;;4.97;3.10;;;;;;;;;;5076656;28;20040;-63
2021/12/26 03:12:59;;;;;;;4.93;2.55;;;;;;;;;;5074721;28;20045;-64
2021/12/26 03:15:26;;;;;;;5.47;2.90;;;;;;;;;;5075473;28;20048;-64
2021/12/26 03:17:52;;;;;;;6.35;3.05;;;;;;;;;;5075527;28;20041;-64
2021/12/26 03:20:21;;;;;;;8.38;3.20;;;;;;;;;;5076016;28;20052;-63
2021/12/26 03:22:47;;;;;;;4.75;2.78;;;;;;;;;;5076011;28;20055;-64
2021/12/26 03:25:15;;;;;;;5.68;3.13;;;;;;;;;;5076010;28;20048;-64
2021/12/26 03:27:41;;;;;;;6.43;3.10;;;;;;;;;;5075846;28;20055;-65
2021/12/26 03:30:07;;;;;;;8.45;3.15;;;;;;;;;;5075103;28;20049;-66
2021/12/26 03:32:33;;;;;;;5.55;2.55;;;;;;;;;;5076218;28;20045;-64
2021/12/26 03:34:59;;;;;;;10.52;3.20;;;;;;;;;;5075272;28;20053;-65
2021/12/26 03:37:25;;;;;;;5.57;2.70;;;;;;;;;;5074893;28;20048;-65
2021/12/26 03:39:51;;;;;;;8.68;3.22;;;;;;;;;;5087888;28;20036;-65
2021/12/26 03:42:21;;;;;;;5.95;3.10;;;;;;;;;;5059289;28;20049;-64
2021/12/26 03:44:47;;;;;;;5.18;2.92;;;;;;;;;;5075525;28;20056;-64
2021/12/26 03:47:13;;;;;;;6.13;3.10;;;;;;;;;;5075573;28;20068;-66
2021/12/26 03:49:39;;;;;;;6.45;3.30;;;;;;;;;;5076514;28;20033;-65
2021/12/26 03:52:06;;;;;;;4.93;3.10;;;;;;;;;;5076667;28;20071;-65
2021/12/26 03:54:32;;;;;;;9.30;3.63;;;;;;;;;;5074851;28;20036;-67
2021/12/26 03:56:58;;;;;;;7.70;3.42;;;;;;;;;;5076489;28;20025;-65
2021/12/26 03:59:24;;;;;;;10.75;3.70;;;;;;;;;;5074110;28;20040;-65
2021/12/26 04:01:50;;;;;;;6.07;3.20;;;;;;;;;;5072350;28;20048;-64
2021/12/26 04:04:16;;;;;;;7.53;3.65;;;;;;;;;;5071741;28;20064;-65
2021/12/26 04:06:42;;;;;;;5.32;3.20;;;;;;;;;;5071716;28;20025;-65
2021/12/26 04:09:08;;;;;;;6.38;3.28;;;;;;;;;;5074914;28;20530;-65
2021/12/26 04:11:36;;;;;;;9.70;3.30;;;;;;;;;;5075474;28;20047;-64
2021/12/26 04:14:02;;;;;;;6.72;3.38;;;;;;;;;;5076036;28;20041;-66
2021/12/26 04:16:29;;;;;;;5.93;3.25;;;;;;;;;;5076357;28;20045;-65
2021/12/26 04:18:54;;;;;;;6.50;3.15;;;;;;;;;;5075589;28;20040;-65
2021/12/26 04:21:20;;;;;;;7.28;3.42;;;;;;;;;;5057764;28;20033;-64
2021/12/26 04:23:46;;;;;;;10.10;4.22;;;;;;;;;;5075822;28;20049;-66
2021/12/26 04:26:12;;;;;;;6.90;3.53;;;;;;;;;;5075162;28;20041;-64
2021/12/26 04:28:38;;;;;;;8.23;3.47;;;;;;;;;;5074669;28;20048;-65
2021/12/26 04:31:04;;;;;;;10.18;3.22;;;;;;;;;;5075816;28;20060;-64
2021/12/26 04:33:30;;;;;;;6.90;3.35;;;;;;;;;;5073429;28;20044;-65
2021/12/26 04:35:56;;;;;;;5.55;3.35;;;;;;;;;;5076798;28;20048;-64
2021/12/26 04:38:22;;;;;;;7.68;3.55;;;;;;;;;;5074867;28;20024;-65
2021/12/26 04:40:51;;;;;;;6.93;3.40;;;;;;;;;;5075979;28;20069;-64
2021/12/26 04:43:17;;;;;;;6.05;3.58;;;;;;;;;;5074695;28;20074;-65
2021/12/26 04:45:43;;;;;;;9.50;4.10;;;;;;;;;;5075632;28;20044;-64
2021/12/26 04:48:09;;;;;;;11.02;4.78;;;;;;;;;;5074282;28;20067;-64
2021/12/26 04:50:35;;;;;;;7.30;3.55;;;;;;;;;;5073972;28;20048;-64
2021/12/26 04:53:01;;;;;;;6.75;3.75;;;;;;;;;;5074593;28;20047;-64
2021/12/26 04:55:28;;;;;;;9.10;4.00;;;;;;;;;;5075004;28;20158;-65
2021/12/26 04:57:55;;;;;;;6.82;3.40;;;;;;;;;;5075343;28;20033;-65
2021/12/26 05:00:22;;;;;;;8.95;3.65;;;;;;;;;;5074272;28;20040;-66
2021/12/26 05:02:48;;;;;;;8.35;3.40;;;;;;;;;;5075800;28;20052;-62
2021/12/26 05:05:14;;;;;;;5.82;3.40;;;;;;;;;;5074232;28;20079;-65
2021/12/26 05:07:42;;;;;;;6.10;3.50;;;;;;;;;;5074275;28;20051;-66
2021/12/26 05:10:09;;;;;;;5.85;3.47;;;;;;;;;;5074656;28;20056;-64
2021/12/26 05:12:36;;;;;;;6.18;3.45;;;;;;;;;;5074699;28;20043;-64
2021/12/26 05:15:03;;;;;;;7.03;3.40;;;;;;;;;;5073798;28;20056;-64
2021/12/26 05:17:30;;;;;;;6.72;3.60;;;;;;;;;;5073720;28;20060;-65
2021/12/26 05:19:56;;;;;;;9.43;3.72;;;;;;;;;;5073612;28;20048;-65
2021/12/26 05:22:22;;;;;;;14.00;3.92;;;;;;;;;;5074962;28;20093;-64
2021/12/26 05:24:48;;;;;;;12.38;4.75;;;;;;;;;;5074222;28;20048;-64
2021/12/26 05:27:15;;;;;;;11.40;4.75;;;;;;;;;;5074009;28;20041;-66
2021/12/26 05:29:41;;;;;;;10.70;5.30;;;;;;;;;;5074241;28;20052;-64
2021/12/26 05:32:07;;;;;;;10.05;4.68;;;;;;;;;;5074665;28;20045;-64
2021/12/26 05:34:34;;;;;;;7.55;3.90;;;;;;;;;;5074023;28;20104;-65
2021/12/26 05:37:00;;;;;;;8.10;3.83;;;;;;;;;;5074611;28;20060;-65
2021/12/26 05:39:26;;;;;;;7.68;3.78;;;;;;;;;;5073626;28;20037;-65
2021/12/26 05:41:52;;;;;;;7.13;3.30;;;;;;;;;;5053686;28;20103;-64
2021/12/26 05:44:18;;;;;;;7.47;3.10;;;;;;;;;;5073372;28;20359;-63
2021/12/26 05:46:45;;;;;;;6.80;3.75;;;;;;;;;;5072734;28;20052;-64
2021/12/26 05:49:11;;;;;;;7.60;3.75;;;;;;;;;;5060066;28;20041;-65
2021/12/26 05:51:37;;;;;;;4.72;3.13;;;;;;;;;;5064350;28;20045;-65
2021/12/26 05:54:04;;;;;;;6.38;3.55;;;;;;;;;;5069461;28;20045;-64
2021/12/26 05:56:30;;;;;;;4.88;3.28;;;;;;;;;;5075058;28;20053;-65
2021/12/26 05:58:56;;;;;;;7.10;3.63;;;;;;;;;;5074003;28;20515;-67
2021/12/26 06:01:22;;;;;;;7.72;3.60;;;;;;;;;;5073419;28;20055;-65
2021/12/26 06:03:48;;;;;;;6.90;3.40;;;;;;;;;;5072667;28;20055;-63
2021/12/26 06:06:14;;;;;;;7.07;4.43;;;;;;;;;;5071029;28;20041;-63
2021/12/26 06:08:40;;;;;;;8.07;3.47;;;;;;;;;;5074277;28;20041;-64
2021/12/26 06:11:06;;;;;;;5.53;3.15;;;;;;;;;;5073202;28;20075;-65
2021/12/26 06:13:33;;;;;;;6.53;3.33;;;;;;;;;;5073216;28;20047;-64
2021/12/26 06:15:59;;;;;;;6.88;3.53;;;;;;;;;;5070295;28;20056;-64
2021/12/26 06:18:25;;;;;;;7.93;3.53;;;;;;;;;;5073811;28;20108;-64
2021/12/26 06:20:51;;;;;;;6.18;3.85;;;;;;;;;;5065969;28;20051;-63
2021/12/26 06:23:17;;;;;;;7.65;3.50;;;;;;;;;;5065496;28;20069;-64
2021/12/26 06:25:43;;;;;;;8.05;3.40;;;;;;;;;;5064994;28;20040;-64
2021/12/26 06:28:09;;;;;;;10.57;3.90;;;;;;;;;;5065446;28;20132;-63
2021/12/26 06:30:36;;;;;;;9.57;4.00;;;;;;;;;;5063350;28;20077;-65
2021/12/26 06:33:02;;;;;;;6.38;3.78;;;;;;;;;;5060855;28;20105;-64
2021/12/26 06:35:28;;;;;;;8.07;3.72;;;;;;;;;;5073632;28;20053;-66
2021/12/26 06:37:54;;;;;;;5.38;3.40;;;;;;;;;;5075372;28;20052;-65
2021/12/26 06:40:20;;;;;;;8.38;3.97;;;;;;;;;;5072302;28;20041;-66
2021/12/26 06:42:48;;;;;;;7.45;3.60;;;;;;;;;;5073671;28;20036;-65
2021/12/26 06:45:16;;;;;;;5.43;3.72;;;;;;;;;;5073728;28;20051;-66
2021/12/26 06:47:46;;;;;;;6.38;3.30;;;;;;;;;;5075762;28;20056;-65
2021/12/26 06:50:12;;;;;;;7.82;4.20;;;;;;;;;;5075094;28;20055;-64
2021/12/26 06:52:38;;;;;;;10.00;4.10;;;;;;;;;;5073675;28;20052;-66
2021/12/26 06:55:04;;;;;;;5.90;4.05;;;;;;;;;;5072915;28;20029;-65
2021/12/26 06:57:30;;;;;;;9.15;4.45;;;;;;;;;;5074581;28;20052;-65
2021/12/26 06:59:56;;;;;;;8.10;5.05;;;;;;;;;;5074634;28;20053;-66
2021/12/26 07:02:22;;;;;;;13.55;5.57;;;;;;;;;;5074529;28;20033;-63
2021/12/26 07:04:48;;;;;;;9.98;4.82;;;;;;;;;;5073077;28;20041;-64
2021/12/26 07:07:14;;;;;;;8.77;5.03;;;;;;;;;;5074821;28;20053;-64
2021/12/26 07:09:43;;;;;;;30.35;14.07;;;;;;;;;;5077247;28;20083;-64
2021/12/26 07:12:10;;;;;;;11.45;5.78;;;;;;;;;;5074990;28;20060;-63
2021/12/26 07:14:36;;;;;;;15.80;5.68;;;;;;;;;;5074977;28;20049;-64
2021/12/26 07:17:02;;;;;;;18.75;5.65;;;;;;;;;;5076453;28;20048;-64
2021/12/26 07:19:27;;;;;;;16.70;5.03;;;;;;;;;;5077028;28;20064;-64
2021/12/26 07:21:53;;;;;;;13.60;4.90;;;;;;;;;;5077743;28;20088;-64
2021/12/26 07:24:19;;;;;;;12.68;4.97;;;;;;;;;;5076300;28;20033;-64
2021/12/26 07:26:45;;;;;;;12.15;5.03;;;;;;;;;;5076892;28;20105;-65
2021/12/26 07:29:11;;;;;;;18.23;5.85;;;;;;;;;;5077870;28;20108;-65
2021/12/26 07:31:37;;;;;;;8.43;4.35;;;;;;;;;;5076615;28;20048;-65
2021/12/26 07:34:03;;;;;;;22.65;6.03;;;;;;;;;;5074314;28;20049;-65
2021/12/26 07:36:29;;;;;;;17.80;5.43;;;;;;;;;;5075710;28;20048;-64
2021/12/26 07:38:55;;;;;;;14.40;5.88;;;;;;;;;;5077743;28;20041;-67
2021/12/26 07:41:21;;;;;;;13.80;5.18;;;;;;;;;;5077930;28;20049;-65
2021/12/26 07:43:47;;;;;;;14.30;5.32;;;;;;;;;;5077321;28;20049;-66
2021/12/26 07:46:13;;;;;;;9.38;4.25;;;;;;;;;;5076815;28;20056;-65
2021/12/26 07:48:39;;;;;;;12.57;5.38;;;;;;;;;;5076259;28;20045;-66
2021/12/26 07:51:06;;;;;;;8.35;5.07;;;;;;;;;;5075838;28;20076;-66
2021/12/26 07:53:33;;;;;;;24.55;5.78;;;;;;;;;;5078022;28;20029;-65
2021/12/26 07:55:59;;;;;;;12.55;5.47;;;;;;;;;;5075888;28;20110;-66
2021/12/26 07:58:25;;;;;;;24.90;8.00;;;;;;;;;;5073209;28;20056;-65
2021/12/26 08:00:52;;;;;;;24.00;7.22;;;;;;;;;;5074682;28;20025;-66
2021/12/26 08:03:18;;;;;;;24.65;7.07;;;;;;;;;;5071764;28;20048;-64
2021/12/26 08:05:44;;;;;;;38.53;9.68;;;;;;;;;;5073033;28;20045;-65
2021/12/26 08:08:10;;;;;;;26.63;8.75;;;;;;;;;;5076753;28;20064;-65
2021/12/26 08:10:36;;;;;;;23.60;8.77;;;;;;;;;;5073914;28;20047;-64
2021/12/26 08:13:02;;;;;;;17.23;5.95;;;;;;;;;;5075200;28;20041;-65
2021/12/26 08:15:28;;;;;;;18.02;5.65;;;;;;;;;;5075079;28;20117;-65
2021/12/26 08:17:54;;;;;;;9.82;4.75;;;;;;;;;;5064607;28;20045;-65
2021/12/26 08:20:20;;;;;;;9.90;5.68;;;;;;;;;;5057122;28;20103;-65
2021/12/26 08:22:46;;;;;;;10.63;5.43;;;;;;;;;;5067866;28;20045;-64
2021/12/26 08:25:13;;;;;;;12.68;6.10;;;;;;;;;;5076373;28;20041;-65
2021/12/26 08:27:39;;;;;;;14.55;5.95;;;;;;;;;;5074932;28;20125;-66
2021/12/26 08:30:05;;;;;;;10.77;5.88;;;;;;;;;;5074765;28;20065;-65
2021/12/26 08:32:34;;;;;;;12.82;5.50;;;;;;;;;;5074248;28;20037;-66
2021/12/26 08:35:01;;;;;;;9.88;5.35;;;;;;;;;;5067292;28;20041;-64
2021/12/26 08:37:27;;;;;;;15.82;5.93;;;;;;;;;;5069386;28;20053;-63
2021/12/26 08:39:54;;;;;;;11.80;6.03;;;;;;;;;;5077109;28;20029;-64
2021/12/26 08:42:20;;;;;;;15.23;6.28;;;;;;;;;;5076570;28;20040;-64
2021/12/26 08:44:46;;;;;;;19.38;7.00;;;;;;;;;;5077979;28;20059;-63
2021/12/26 08:47:12;;;;;;;112.15;22.20;;;;;;;;;;5071622;28;20052;-65
2021/12/26 08:49:39;;;;;;;141.10;25.08;;;;;;;;;;5070820;28;20037;-64
2021/12/26 08:52:06;;;;;;;80.13;18.00;;;;;;;;;;5070089;28;20037;-64
2021/12/26 08:54:33;;;;;;;25.00;8.32;;;;;;;;;;5071261;28;20080;-66
2021/12/26 08:56:59;;;;;;;15.43;6.68;;;;;;;;;;5071621;28;20049;-66
2021/12/26 08:59:29;;;;;;;11.98;7.10;;;;;;;;;;5056565;28;20063;-64
2021/12/26 09:01:56;;;;;;;19.08;6.88;;;;;;;;;;5065576;28;20080;-64
2021/12/26 09:04:22;;;;;;;24.65;8.27;;;;;;;;;;5076108;28;20097;-65
2021/12/26 09:06:48;;;;;;;10.10;5.57;;;;;;;;;;5076040;28;20414;-65
2021/12/26 09:09:14;;;;;;;11.27;5.78;;;;;;;;;;5093129;28;20059;-63
2021/12/26 09:11:40;;;;;;;14.00;5.97;;;;;;;;;;5075800;28;20040;-63
2021/12/26 09:14:06;;;;;;;10.95;5.60;;;;;;;;;;5075057;28;20094;-63
2021/12/26 09:16:34;;;;;;;16.48;5.82;;;;;;;;;;5092569;28;20060;-63
2021/12/26 09:19:01;;;;;;;14.13;5.60;;;;;;;;;;5071604;28;20052;-63
2021/12/26 09:21:27;;;;;;;13.65;6.65;;;;;;;;;;5075046;28;20037;-64
2021/12/26 09:23:53;;;;;;;9.13;5.15;;;;;;;;;;5049041;28;20049;-64
2021/12/26 09:26:19;;;;;;;12.32;5.50;;;;;;;;;;5089226;28;20076;-64
2021/12/26 09:28:45;;;;;;;17.10;6.75;;;;;;;;;;5073558;28;20110;-64
2021/12/26 09:31:11;;;;;;;10.52;5.40;;;;;;;;;;5074966;28;20049;-64
2021/12/26 09:33:37;;;;;;;10.73;5.65;;;;;;;;;;5089780;28;20066;-63
2021/12/26 09:36:03;;;;;;;12.63;6.03;;;;;;;;;;5074512;28;20076;-64
2021/12/26 09:38:29;;;;;;;11.80;5.57;;;;;;;;;;5075203;28;20032;-63
2021/12/26 09:40:56;;;;;;;9.68;5.18;;;;;;;;;;5089995;28;20056;-63
2021/12/26 09:43:22;;;;;;;13.82;5.68;;;;;;;;;;5091800;28;20583;-64
2021/12/26 09:45:48;;;;;;;19.88;7.38;;;;;;;;;;5092019;28;20097;-64
2021/12/26 09:48:14;;;;;;;39.88;10.88;;;;;;;;;;5075757;28;20048;-64
2021/12/26 09:50:40;;;;;;;46.10;10.50;;;;;;;;;;5074733;28;20065;-64
2021/12/26 09:53:06;;;;;;;19.98;7.40;;;;;;;;;;5071612;28;20051;-64
2021/12/26 09:55:32;;;;;;;10.15;5.35;;;;;;;;;;5075692;28;20028;-65
2021/12/26 09:57:58;;;;;;;12.10;5.72;;;;;;;;;;5074433;28;20063;-64
2021/12/26 10:00:26;;;;;;;17.90;7.45;;;;;;;;;;5057629;28;20053;-64
2021/12/26 10:03:08;;;;;;;26.23;7.33;;;;;;;;;;5075587;28;20093;-64
2021/12/26 10:05:54;;;;;;;43.13;10.10;;;;;;;;;;5075562;28;20049;-66
2021/12/26 10:08:20;;;;;;;15.65;5.88;;;;;;;;;;5076450;28;20047;-64
2021/12/26 10:11:04;;;;;;;26.65;9.07;;;;;;;;;;5072224;28;20053;-64
2021/12/26 10:13:36;;;;;;;55.10;12.15;;;;;;;;;;5070594;28;20041;-63
2021/12/26 10:16:03;;;;;;;29.77;8.38;;;;;;;;;;5073699;28;20086;-65
2021/12/26 10:18:30;;;;;;;21.77;7.57;;;;;;;;;;5074905;28;20037;-63
2021/12/26 10:20:56;;;;;;;21.30;7.38;;;;;;;;;;5073936;28;20055;-64
2021/12/26 10:23:31;;;;;;;28.38;8.15;;;;;;;;;;5071394;28;20049;-63
2021/12/26 10:25:57;;;;;;;15.05;5.85;;;;;;;;;;5074312;28;20044;-63
2021/12/26 10:28:23;;;;;;;37.28;9.73;;;;;;;;;;5090751;28;20049;-65
2021/12/26 10:30:49;;;;;;;22.70;7.32;;;;;;;;;;5075592;28;20071;-63
2021/12/26 10:33:15;;;;;;;22.13;7.22;;;;;;;;;;5072269;28;20049;-64
2021/12/26 10:35:41;;;;;;;10.77;5.97;;;;;;;;;;5070201;28;20072;-65
2021/12/26 10:38:15;;;;;;;11.93;5.88;;;;;;;;;;5057022;28;20450;-64
2021/12/26 10:40:41;;;;;;;11.40;6.82;;;;;;;;;;5053850;28;20128;-64
2021/12/26 10:43:10;;;;;;;13.02;5.57;;;;;;;;;;5050839;28;20094;-65
2021/12/26 10:45:36;;;;;;;14.55;6.72;;;;;;;;;;5039483;28;20045;-64
2021/12/26 10:48:06;;;;;;;21.83;7.35;;;;;;;;;;5078114;28;20051;-64
2021/12/26 10:50:34;;;;;;;207.70;41.38;;;;;;;;;;5075722;28;20040;-64
2021/12/26 10:53:07;;;;;;;100.57;23.25;;;;;;;;;;5060185;28;20614;-64
2021/12/26 10:55:34;;;;;;;139.65;27.85;;;;;;;;;;5058955;28;20041;-64
2021/12/26 10:58:01;;;;;;;90.70;21.77;;;;;;;;;;5060604;28;20044;-64
2021/12/26 11:00:29;;;;;;;38.60;11.95;;;;;;;;;;5055694;28;20551;-65
2021/12/26 11:03:01;;;;;;;32.95;9.25;;;;;;;;;;5041650;28;20055;-64
2021/12/26 11:05:38;;;;;;;31.15;8.55;;;;;;;;;;5060223;28;20044;-64
2021/12/26 11:08:11;;;;;;;39.00;11.98;;;;;;;;;;5060303;28;20052;-64
2021/12/26 11:10:42;;;;;;;47.10;11.63;;;;;;;;;;5058755;28;20045;-64
2021/12/26 11:13:15;;;;;;;48.55;12.65;;;;;;;;;;5052891;28;20049;-66
2021/12/26 11:15:42;;;;;;;53.13;11.23;;;;;;;;;;5061248;28;20064;-65
2021/12/26 11:18:12;;;;;;;48.25;12.32;;;;;;;;;;5060980;28;20091;-63
2021/12/26 11:20:39;;;;;;;35.70;9.95;;;;;;;;;;5063859;28;20087;-64
2021/12/26 11:23:10;;;;;;;61.25;12.88;;;;;;;;;;5080035;28;20098;-64
2021/12/26 11:25:47;;;;;;;36.65;9.60;;;;;;;;;;5063265;28;20045;-65
2021/12/26 11:28:15;;;;;;;21.60;7.50;;;;;;;;;;5062944;28;20045;-64
2021/12/26 11:30:42;;;;;;;13.15;6.10;;;;;;;;;;5060429;28;20489;-64
2021/12/26 11:33:09;;;;;;;37.50;8.75;;;;;;;;;;5059217;28;20458;-64
2021/12/26 11:35:35;;;;;;;19.73;7.43;;;;;;;;;;5060817;28;20064;-64
2021/12/26 11:38:03;;;;;;;17.80;7.35;;;;;;;;;;5060741;28;20052;-64
2021/12/26 11:40:29;;;;;;;19.58;6.43;;;;;;;;;;5061605;28;20453;-65
2021/12/26 11:43:09;;;;;;;18.27;6.68;;;;;;;;;;5080981;28;20045;-65
2021/12/26 11:45:55;;;;;;;8.05;4.88;;;;;;;;;;5062575;28;20048;-64
2021/12/26 11:48:39;;;;;;;15.27;6.43;;;;;;;;;;5063255;28;20037;-64
2021/12/26 11:51:17;;;;;;;14.55;5.85;;;;;;;;;;5026743;28;20069;-64
2021/12/26 11:53:43;;;;;;;20.65;6.25;;;;;;;;;;5061826;28;20041;-65
2021/12/26 11:56:18;;;;;;;14.80;5.50;;;;;;;;;;5061798;28;20378;-65
2021/12/26 11:58:44;;;;;;;7.68;4.75;;;;;;;;;;5065979;28;20041;-64
2021/12/26 12:01:14;;;;;;;17.63;8.30;;;;;;;;;;5080974;28;20048;-65
2021/12/26 12:03:40;;;;;;;34.65;9.52;;;;;;;;;;5079663;28;20628;-64
2021/12/26 12:06:06;;;;;;;96.28;19.48;;;;;;;;;;5063963;28;20064;-65
2021/12/26 12:08:34;;;;;;;70.85;17.65;;;;;;;;;;5063010;28;20053;-64
2021/12/26 12:11:04;;;;;;;20.33;6.85;;;;;;;;;;5063809;28;20051;-65
2021/12/26 12:13:40;;;;;;;12.63;5.53;;;;;;;;;;5076406;28;20057;-64
2021/12/26 12:16:07;;;;;;;17.85;7.55;;;;;;;;;;5064681;28;20052;-64
2021/12/26 12:18:40;;;;;;;46.67;12.48;;;;;;;;;;5065838;28;20045;-64
2021/12/26 12:21:06;;;;;;;15.32;6.07;;;;;;;;;;5063941;28;20052;-64
2021/12/26 12:23:32;;;;;;;55.60;13.60;;;;;;;;;;5061648;28;20041;-64
2021/12/26 12:25:58;;;;;;;20.13;7.03;;;;;;;;;;5063861;28;20043;-64
2021/12/26 12:28:26;;;;;;;21.13;7.30;;;;;;;;;;5075892;28;20053;-65
2021/12/26 12:30:54;;;;;;;17.58;7.32;;;;;;;;;;5056267;28;20108;-64
2021/12/26 12:33:25;;;;;;;13.80;6.72;;;;;;;;;;5063902;28;20045;-64
2021/12/26 12:35:56;;;;;;;17.10;7.22;;;;;;;;;;5076710;28;20402;-65
2021/12/26 12:38:24;;;;;;;12.90;6.65;;;;;;;;;;5075614;28;20048;-64
2021/12/26 12:40:50;;;;;;;17.48;6.57;;;;;;;;;;5057676;28;20041;-64
2021/12/26 12:43:18;;;;;;;13.93;6.32;;;;;;;;;;5056310;28;20045;-64
2021/12/26 12:45:58;;;;;;;24.25;8.75;;;;;;;;;;5022223;28;20049;-65
2021/12/26 12:48:26;;;;;;;13.45;6.22;;;;;;;;;;5056509;28;20087;-64
2021/12/26 12:50:53;;;;;;;30.20;9.30;;;;;;;;;;5058336;28;20110;-63
2021/12/26 12:53:41;;;;;;;25.13;8.20;;;;;;;;;;5077426;28;20048;-64
2021/12/26 12:56:26;;;;;;;24.58;7.30;;;;;;;;;;5025840;28;20045;-65
2021/12/26 12:58:52;;;;;;;34.53;10.13;;;;;;;;;;5036556;28;20052;-64
2021/12/26 13:01:38;;;;;;;39.20;11.65;;;;;;;;;;5062506;28;20068;-64
2021/12/26 13:04:04;;;;;;;11.02;5.85;;;;;;;;;;5044296;28;20040;-63
2021/12/26 13:06:30;;;;;;;15.65;6.65;;;;;;;;;;5060464;28;20048;-65
2021/12/26 13:08:57;;;;;;;12.25;5.88;;;;;;;;;;5059333;28;20052;-66
2021/12/26 13:11:24;;;;;;;22.35;7.88;;;;;;;;;;5059867;28;20048;-66
2021/12/26 13:13:50;;;;;;;10.98;6.38;;;;;;;;;;5059159;28;20080;-66
2021/12/26 13:16:17;;;;;;;13.90;6.20;;;;;;;;;;5051957;28;20061;-66
2021/12/26 13:18:43;;;;;;;13.23;6.75;;;;;;;;;;5054188;28;20077;-65
2021/12/26 13:21:10;;;;;;;19.52;7.15;;;;;;;;;;5057783;28;20060;-65
2021/12/26 13:23:39;;;;;;;22.65;7.28;;;;;;;;;;5061407;28;20112;-66
2021/12/26 13:26:06;;;;;;;10.55;5.80;;;;;;;;;;5060095;28;20057;-66
2021/12/26 13:28:34;;;;;;;8.73;5.80;;;;;;;;;;5056393;28;20094;-65
2021/12/26 13:31:08;;;;;;;10.63;6.20;;;;;;;;;;5056715;28;20495;-65
2021/12/26 13:33:35;;;;;;;12.60;6.32;;;;;;;;;;5056370;28;20056;-65
2021/12/26 13:36:06;;;;;;;8.80;5.78;;;;;;;;;;5053122;28;20048;-65
2021/12/26 13:38:36;;;;;;;12.20;6.55;;;;;;;;;;5055841;28;20045;-65
2021/12/26 13:41:03;;;;;;;11.27;6.03;;;;;;;;;;5058345;28;20068;-65
2021/12/26 13:43:28;;;;;;;12.02;6.65;;;;;;;;;;5080018;28;20056;-65
2021/12/26 13:45:55;;;;;;;12.00;6.38;;;;;;;;;;5064646;28;20045;-65
2021/12/26 13:48:29;;;;;;;12.07;6.38;;;;;;;;;;5065087;28;20037;-66
2021/12/26 13:50:55;;;;;;;13.05;6.25;;;;;;;;;;5077265;28;20053;-65
2021/12/26 13:53:21;;;;;;;25.52;9.90;;;;;;;;;;5063621;28;20052;-65
2021/12/26 13:55:53;;;;;;;43.50;12.77;;;;;;;;;;5062523;28;20083;-65
2021/12/26 13:58:19;;;;;;;30.40;10.30;;;;;;;;;;5058066;28;20053;-65
2021/12/26 14:00:50;;;;;;;80.22;19.17;;;;;;;;;;5054641;28;20056;-67
2021/12/26 14:03:16;;;;;;;54.35;14.25;;;;;;;;;;5055039;28;20083;-66
2021/12/26 14:05:42;;;;;;;75.68;17.75;;;;;;;;;;5056326;28;20045;-65
2021/12/26 14:08:19;;;;;;;56.42;13.32;;;;;;;;;;5054551;28;20467;-65
2021/12/26 14:10:45;;;;;;;18.63;7.07;;;;;;;;;;5055045;28;20041;-65
2021/12/26 14:13:11;;;;;;;16.65;6.65;;;;;;;;;;5076521;28;20059;-65
2021/12/26 14:15:45;;;;;;;15.25;7.30;;;;;;;;;;5069143;28;20049;-66
2021/12/26 14:18:17;;;;;;;11.30;6.82;;;;;;;;;;5067260;28;20056;-65
2021/12/26 14:20:53;;;;;;;15.82;7.15;;;;;;;;;;5066149;28;20503;-66
2021/12/26 14:23:26;;;;;;;15.43;7.22;;;;;;;;;;5063905;28;20045;-66
2021/12/26 14:25:53;;;;;;;12.60;6.88;;;;;;;;;;5064991;28;20045;-66
2021/12/26 14:28:19;;;;;;;12.90;6.88;;;;;;;;;;5063036;28;20045;-65
2021/12/26 14:30:46;;;;;;;20.35;7.18;;;;;;;;;;5068008;28;20056;-65
2021/12/26 14:33:13;;;;;;;10.50;6.72;;;;;;;;;;5077459;28;20075;-65
2021/12/26 14:35:39;;;;;;;11.48;6.50;;;;;;;;;;5058880;28;20081;-65
2021/12/26 14:38:14;;;;;;;12.77;6.60;;;;;;;;;;5062160;28;20047;-65
2021/12/26 14:41:09;;;;;;;13.02;6.82;;;;;;;;;;5073568;28;20056;-65